sensor_id;sensor_type;location;lat;lon;timestamp;temperature;humidity
26182;DHT22;13927;51.534;11.866;2023-03-01T00:01:39;-2.80;99.90
26182;DHT22;13927;51.534;11.866;2023-03-01T00:04:05;-2.90;99.90
26182;DHT22;13927;51.534;11.866;2023-03-01T00:06:31;-2.90;99.90
26182;DHT22;13927;51.534;11.866;2023-03-01T00:08:57;-2.90;99.90
26182;DHT22;13927;51.534;11.866;2023-03-01T00:11:33;-2.90;99.90
26182;DHT22;13927;51.534;11.866;2023-03-01T00:14:02;-3.00;99.90
26182;DHT22;13927;51.534;11.866;2023-03-01T00:16:37;-3.00;99.90
26182;DHT22;13927;51.534;11.866;2023-03-01T00:19:05;-3.10;99.90
26182;DHT22;13927;51.534;11.866;2023-03-01T00:21:32;-3.10;99.90
26182;DHT22;13927;51.534;11.866;2023-03-01T00:23:59;-3.10;99.90
26182;DHT22;13927;51.534;11.866;2023-03-01T00:26:25;-3.10;99.90
26182;DHT22;13927;51.534;11.866;2023-03-01T00:28:51;-3.20;99.90
26182;DHT22;13927;51.534;11.866;2023-03-01T00:31:20;-3.20;99.90
26182;DHT22;13927;51.534;11.866;2023-03-01T00:33:47;-3.20;99.90
26182;DHT22;13927;51.534;11.866;2023-03-01T00:36:14;-3.20;99.90
26182;DHT22;13927;51.534;11.866;2023-03-01T00:38:44;-3.20;99.90
26182;DHT22;13927;51.534;11.866;2023-03-01T00:41:13;-3.20;99.90
26182;DHT22;13927;51.534;11.866;2023-03-01T00:43:40;-3.20;99.90
26182;DHT22;13927;51.534;11.866;2023-03-01T00:46:15;-3.30;99.90
26182;DHT22;13927;51.534;11.866;2023-03-01T00:48:42;-3.30;99.90
26182;DHT22;13927;51.534;11.866;2023-03-01T00:53:50;-3.30;99.90
26182;DHT22;13927;51.534;11.866;2023-03-01T00:56:16;-3.20;99.90
26182;DHT22;13927;51.534;11.866;2023-03-01T00:58:42;-3.20;99.90
26182;DHT22;13927;51.534;11.866;2023-03-01T01:04:05;-3.20;99.90
26182;DHT22;13927;51.534;11.866;2023-03-01T01:06:36;-3.30;99.90
26182;DHT22;13927;51.534;11.866;2023-03-01T01:09:06;-3.30;99.90
26182;DHT22;13927;51.534;11.866;2023-03-01T01:11:33;-3.30;99.90
26182;DHT22;13927;51.534;11.866;2023-03-01T01:14:00;-3.30;99.90
26182;DHT22;13927;51.534;11.866;2023-03-01T01:16:27;-3.70;99.90
26182;DHT22;13927;51.534;11.866;2023-03-01T01:18:54;-3.30;99.90
26182;DHT22;13927;51.534;11.866;2023-03-01T01:23:49;-3.30;99.90
26182;DHT22;13927;51.534;11.866;2023-03-01T01:26:16;-3.40;99.90
26182;DHT22;13927;51.534;11.866;2023-03-01T01:28:44;-3.30;99.90
26182;DHT22;13927;51.534;11.866;2023-03-01T01:31:12;-3.30;99.90
26182;DHT22;13927;51.534;11.866;2023-03-01T01:33:38;-3.30;99.90
26182;DHT22;13927;51.534;11.866;2023-03-01T01:36:05;-3.20;99.90
26182;DHT22;13927;51.534;11.866;2023-03-01T01:38:31;-3.20;99.90
26182;DHT22;13927;51.534;11.866;2023-03-01T01:40:58;-3.20;99.90
26182;DHT22;13927;51.534;11.866;2023-03-01T01:43:29;-3.30;99.90
26182;DHT22;13927;51.534;11.866;2023-03-01T01:46:28;-3.20;99.90
26182;DHT22;13927;51.534;11.866;2023-03-01T01:49:00;-3.30;99.90
26182;DHT22;13927;51.534;11.866;2023-03-01T01:51:33;-3.30;99.90
26182;DHT22;13927;51.534;11.866;2023-03-01T01:54:09;-3.30;99.90
26182;DHT22;13927;51.534;11.866;2023-03-01T01:56:40;-3.30;99.90
26182;DHT22;13927;51.534;11.866;2023-03-01T01:59:08;-3.30;99.90
26182;DHT22;13927;51.534;11.866;2023-03-01T02:01:34;-3.30;99.90
26182;DHT22;13927;51.534;11.866;2023-03-01T02:04:00;-3.30;99.90
26182;DHT22;13927;51.534;11.866;2023-03-01T02:06:39;-3.30;99.90
26182;DHT22;13927;51.534;11.866;2023-03-01T02:09:13;-3.30;99.90
26182;DHT22;13927;51.534;11.866;2023-03-01T02:11:40;-3.30;99.90
26182;DHT22;13927;51.534;11.866;2023-03-01T02:14:06;-3.30;99.90
26182;DHT22;13927;51.534;11.866;2023-03-01T02:16:32;-3.40;99.90
26182;DHT22;13927;51.534;11.866;2023-03-01T02:18:58;-3.40;99.90
26182;DHT22;13927;51.534;11.866;2023-03-01T02:27:28;-3.50;99.90
26182;DHT22;13927;51.534;11.866;2023-03-01T02:30:25;-3.50;99.90
26182;DHT22;13927;51.534;11.866;2023-03-01T02:32:55;-3.50;99.90
26182;DHT22;13927;51.534;11.866;2023-03-01T02:35:38;-3.50;99.90
26182;DHT22;13927;51.534;11.866;2023-03-01T02:38:07;-3.60;99.90
26182;DHT22;13927;51.534;11.866;2023-03-01T02:40:36;-3.50;99.90
26182;DHT22;13927;51.534;11.866;2023-03-01T02:43:04;-3.50;99.90
26182;DHT22;13927;51.534;11.866;2023-03-01T02:45:33;-3.50;99.90
26182;DHT22;13927;51.534;11.866;2023-03-01T02:47:59;-3.50;99.90
26182;DHT22;13927;51.534;11.866;2023-03-01T02:51:48;-3.50;99.90
26182;DHT22;13927;51.534;11.866;2023-03-01T02:56:41;-3.50;99.90
26182;DHT22;13927;51.534;11.866;2023-03-01T02:59:09;-3.60;99.90
26182;DHT22;13927;51.534;11.866;2023-03-01T03:01:35;-3.60;99.90
26182;DHT22;13927;51.534;11.866;2023-03-01T03:04:10;-3.70;99.90
26182;DHT22;13927;51.534;11.866;2023-03-01T03:06:44;-3.70;99.90
26182;DHT22;13927;51.534;11.866;2023-03-01T03:09:11;-3.70;99.90
26182;DHT22;13927;51.534;11.866;2023-03-01T03:11:38;-3.70;99.90
26182;DHT22;13927;51.534;11.866;2023-03-01T03:14:06;-3.70;99.90
26182;DHT22;13927;51.534;11.866;2023-03-01T03:16:40;-3.80;99.90
26182;DHT22;13927;51.534;11.866;2023-03-01T03:19:11;-3.80;99.90
26182;DHT22;13927;51.534;11.866;2023-03-01T03:21:37;-3.80;99.90
26182;DHT22;13927;51.534;11.866;2023-03-01T03:24:03;-3.80;99.90
26182;DHT22;13927;51.534;11.866;2023-03-01T03:26:30;-3.80;99.90
26182;DHT22;13927;51.534;11.866;2023-03-01T03:28:56;-3.80;99.90
26182;DHT22;13927;51.534;11.866;2023-03-01T03:31:22;-3.90;99.90
26182;DHT22;13927;51.534;11.866;2023-03-01T03:33:48;-3.90;99.90
26182;DHT22;13927;51.534;11.866;2023-03-01T03:36:19;-3.90;99.90
26182;DHT22;13927;51.534;11.866;2023-03-01T03:38:46;-3.90;99.90
26182;DHT22;13927;51.534;11.866;2023-03-01T03:41:12;-4.00;99.90
26182;DHT22;13927;51.534;11.866;2023-03-01T03:43:39;-3.90;99.90
26182;DHT22;13927;51.534;11.866;2023-03-01T03:46:06;-4.00;99.90
26182;DHT22;13927;51.534;11.866;2023-03-01T03:48:43;-4.00;99.90
26182;DHT22;13927;51.534;11.866;2023-03-01T03:51:11;-4.00;99.90
26182;DHT22;13927;51.534;11.866;2023-03-01T03:53:42;-4.00;99.90
26182;DHT22;13927;51.534;11.866;2023-03-01T03:56:08;-4.00;99.90
26182;DHT22;13927;51.534;11.866;2023-03-01T03:58:36;-4.00;99.90
26182;DHT22;13927;51.534;11.866;2023-03-01T04:03:30;-4.10;99.90
26182;DHT22;13927;51.534;11.866;2023-03-01T04:06:01;-4.10;99.90
26182;DHT22;13927;51.534;11.866;2023-03-01T04:08:35;-4.10;99.90
26182;DHT22;13927;51.534;11.866;2023-03-01T04:11:02;-4.20;99.90
26182;DHT22;13927;51.534;11.866;2023-03-01T04:13:50;-4.20;99.90
26182;DHT22;13927;51.534;11.866;2023-03-01T04:16:16;-4.20;99.90
26182;DHT22;13927;51.534;11.866;2023-03-01T04:18:44;-4.20;99.90
26182;DHT22;13927;51.534;11.866;2023-03-01T04:21:10;-4.20;99.90
26182;DHT22;13927;51.534;11.866;2023-03-01T04:23:36;-4.20;99.90
26182;DHT22;13927;51.534;11.866;2023-03-01T04:26:08;-4.10;99.90
26182;DHT22;13927;51.534;11.866;2023-03-01T04:28:37;-4.20;99.90
26182;DHT22;13927;51.534;11.866;2023-03-01T04:31:07;-4.20;99.90
26182;DHT22;13927;51.534;11.866;2023-03-01T04:33:42;-4.20;99.90
26182;DHT22;13927;51.534;11.866;2023-03-01T04:36:15;-4.20;99.90
26182;DHT22;13927;51.534;11.866;2023-03-01T04:38:43;-4.20;99.90
26182;DHT22;13927;51.534;11.866;2023-03-01T04:41:13;-4.20;99.90
26182;DHT22;13927;51.534;11.866;2023-03-01T04:43:40;-4.20;99.90
26182;DHT22;13927;51.534;11.866;2023-03-01T04:46:10;-4.20;99.90
26182;DHT22;13927;51.534;11.866;2023-03-01T04:48:38;-4.20;99.90
26182;DHT22;13927;51.534;11.866;2023-03-01T04:51:06;-4.20;99.90
26182;DHT22;13927;51.534;11.866;2023-03-01T04:53:33;-4.20;99.90
26182;DHT22;13927;51.534;11.866;2023-03-01T04:56:02;-4.20;99.90
26182;DHT22;13927;51.534;11.866;2023-03-01T04:58:28;-4.20;99.90
26182;DHT22;13927;51.534;11.866;2023-03-01T05:00:55;-4.20;99.90
26182;DHT22;13927;51.534;11.866;2023-03-01T05:03:21;-4.20;99.90
26182;DHT22;13927;51.534;11.866;2023-03-01T05:05:50;-4.20;99.90
26182;DHT22;13927;51.534;11.866;2023-03-01T05:08:16;-4.10;99.90
26182;DHT22;13927;51.534;11.866;2023-03-01T05:10:51;-4.10;99.90
26182;DHT22;13927;51.534;11.866;2023-03-01T05:13:19;-4.10;99.90
26182;DHT22;13927;51.534;11.866;2023-03-01T05:15:56;-4.10;99.90
26182;DHT22;13927;51.534;11.866;2023-03-01T05:18:25;-4.10;99.90
26182;DHT22;13927;51.534;11.866;2023-03-01T05:21:12;-4.10;99.90
26182;DHT22;13927;51.534;11.866;2023-03-01T05:23:41;-4.10;99.90
26182;DHT22;13927;51.534;11.866;2023-03-01T05:26:09;-4.10;99.90
26182;DHT22;13927;51.534;11.866;2023-03-01T05:28:35;-4.10;99.90
26182;DHT22;13927;51.534;11.866;2023-03-01T05:31:02;-4.00;99.90
26182;DHT22;13927;51.534;11.866;2023-03-01T05:33:28;-3.90;99.90
26182;DHT22;13927;51.534;11.866;2023-03-01T05:35:53;-3.80;99.90
26182;DHT22;13927;51.534;11.866;2023-03-01T05:38:20;-3.70;99.90
26182;DHT22;13927;51.534;11.866;2023-03-01T05:40:47;-3.70;99.90
26182;DHT22;13927;51.534;11.866;2023-03-01T05:43:15;-3.70;99.90
26182;DHT22;13927;51.534;11.866;2023-03-01T05:45:42;-3.60;99.90
26182;DHT22;13927;51.534;11.866;2023-03-01T05:48:09;-3.60;99.90
26182;DHT22;13927;51.534;11.866;2023-03-01T05:50:39;-3.50;99.90
26182;DHT22;13927;51.534;11.866;2023-03-01T05:53:16;-3.50;99.90
26182;DHT22;13927;51.534;11.866;2023-03-01T05:55:45;-3.50;99.90
26182;DHT22;13927;51.534;11.866;2023-03-01T05:58:15;-3.40;99.90
26182;DHT22;13927;51.534;11.866;2023-03-01T06:00:48;-3.40;99.90
26182;DHT22;13927;51.534;11.866;2023-03-01T06:03:15;-3.40;99.90
26182;DHT22;13927;51.534;11.866;2023-03-01T06:05:44;-3.40;99.90
26182;DHT22;13927;51.534;11.866;2023-03-01T06:08:11;-3.40;99.90
26182;DHT22;13927;51.534;11.866;2023-03-01T06:10:37;-3.30;99.90
26182;DHT22;13927;51.534;11.866;2023-03-01T06:13:07;-3.40;99.90
26182;DHT22;13927;51.534;11.866;2023-03-01T06:15:33;-3.40;99.90
26182;DHT22;13927;51.534;11.866;2023-03-01T06:17:58;-3.30;99.90
26182;DHT22;13927;51.534;11.866;2023-03-01T06:20:27;-3.30;99.90
26182;DHT22;13927;51.534;11.866;2023-03-01T06:22:53;-3.30;99.90
26182;DHT22;13927;51.534;11.866;2023-03-01T06:25:21;-3.20;99.90
26182;DHT22;13927;51.534;11.866;2023-03-01T06:27:48;-3.20;99.90
26182;DHT22;13927;51.534;11.866;2023-03-01T06:30:17;-3.20;99.90
26182;DHT22;13927;51.534;11.866;2023-03-01T06:32:44;-3.10;99.90
26182;DHT22;13927;51.534;11.866;2023-03-01T06:35:11;-3.10;99.90
26182;DHT22;13927;51.534;11.866;2023-03-01T06:37:39;-3.00;99.90
26182;DHT22;13927;51.534;11.866;2023-03-01T06:40:07;-2.90;99.90
26182;DHT22;13927;51.534;11.866;2023-03-01T06:42:35;-2.90;99.90
26182;DHT22;13927;51.534;11.866;2023-03-01T06:45:03;-2.90;99.90
26182;DHT22;13927;51.534;11.866;2023-03-01T06:47:30;-2.80;99.90
26182;DHT22;13927;51.534;11.866;2023-03-01T06:49:55;-2.70;99.90
26182;DHT22;13927;51.534;11.866;2023-03-01T06:52:21;-2.70;99.90
26182;DHT22;13927;51.534;11.866;2023-03-01T06:54:47;-2.60;99.90
26182;DHT22;13927;51.534;11.866;2023-03-01T06:57:13;-2.50;99.90
26182;DHT22;13927;51.534;11.866;2023-03-01T06:59:39;-2.50;99.90
26182;DHT22;13927;51.534;11.866;2023-03-01T07:02:05;-2.40;99.90
26182;DHT22;13927;51.534;11.866;2023-03-01T07:04:31;-2.40;99.90
26182;DHT22;13927;51.534;11.866;2023-03-01T07:06:56;-2.30;99.90
26182;DHT22;13927;51.534;11.866;2023-03-01T07:09:23;-2.20;99.90
26182;DHT22;13927;51.534;11.866;2023-03-01T07:11:50;-2.00;99.90
26182;DHT22;13927;51.534;11.866;2023-03-01T07:14:16;-1.90;99.90
26182;DHT22;13927;51.534;11.866;2023-03-01T07:16:42;-1.70;99.90
26182;DHT22;13927;51.534;11.866;2023-03-01T07:19:08;-1.60;99.90
26182;DHT22;13927;51.534;11.866;2023-03-01T07:21:35;-1.40;99.90
26182;DHT22;13927;51.534;11.866;2023-03-01T07:24:06;-1.30;99.90
26182;DHT22;13927;51.534;11.866;2023-03-01T07:26:32;-1.20;99.90
26182;DHT22;13927;51.534;11.866;2023-03-01T07:29:04;-1.00;99.90
26182;DHT22;13927;51.534;11.866;2023-03-01T07:31:31;-0.90;99.90
26182;DHT22;13927;51.534;11.866;2023-03-01T07:33:56;-0.80;99.90
26182;DHT22;13927;51.534;11.866;2023-03-01T07:36:23;-0.70;99.90
26182;DHT22;13927;51.534;11.866;2023-03-01T07:38:50;-0.50;99.90
26182;DHT22;13927;51.534;11.866;2023-03-01T07:41:16;-0.30;99.90
26182;DHT22;13927;51.534;11.866;2023-03-01T07:43:42;-0.20;99.90
26182;DHT22;13927;51.534;11.866;2023-03-01T07:46:08;-0.10;99.90
26182;DHT22;13927;51.534;11.866;2023-03-01T07:48:34;0.00;99.90
26182;DHT22;13927;51.534;11.866;2023-03-01T07:51:01;0.20;99.90
26182;DHT22;13927;51.534;11.866;2023-03-01T07:53:29;0.30;99.90
26182;DHT22;13927;51.534;11.866;2023-03-01T07:56:13;0.50;99.90
26182;DHT22;13927;51.534;11.866;2023-03-01T07:58:40;0.80;99.90
26182;DHT22;13927;51.534;11.866;2023-03-01T08:01:09;0.90;99.90
26182;DHT22;13927;51.534;11.866;2023-03-01T08:03:37;1.10;99.90
26182;DHT22;13927;51.534;11.866;2023-03-01T08:06:05;1.20;99.90
26182;DHT22;13927;51.534;11.866;2023-03-01T08:08:32;1.30;99.90
26182;DHT22;13927;51.534;11.866;2023-03-01T08:11:00;1.50;99.90
26182;DHT22;13927;51.534;11.866;2023-03-01T08:13:27;1.60;99.90
26182;DHT22;13927;51.534;11.866;2023-03-01T08:15:53;1.80;99.90
26182;DHT22;13927;51.534;11.866;2023-03-01T08:18:19;1.80;99.90
26182;DHT22;13927;51.534;11.866;2023-03-01T08:20:45;2.00;99.90
26182;DHT22;13927;51.534;11.866;2023-03-01T08:23:11;2.10;99.90
26182;DHT22;13927;51.534;11.866;2023-03-01T08:25:39;2.30;99.90
26182;DHT22;13927;51.534;11.866;2023-03-01T08:28:05;2.40;99.90
26182;DHT22;13927;51.534;11.866;2023-03-01T08:30:33;2.60;99.90
26182;DHT22;13927;51.534;11.866;2023-03-01T08:32:59;2.90;99.90
26182;DHT22;13927;51.534;11.866;2023-03-01T08:35:25;3.10;99.90
26182;DHT22;13927;51.534;11.866;2023-03-01T08:37:51;3.30;99.90
26182;DHT22;13927;51.534;11.866;2023-03-01T08:40:17;3.50;99.90
26182;DHT22;13927;51.534;11.866;2023-03-01T08:42:42;3.80;99.90
26182;DHT22;13927;51.534;11.866;2023-03-01T08:45:10;3.80;99.90
26182;DHT22;13927;51.534;11.866;2023-03-01T08:47:36;3.80;99.90
26182;DHT22;13927;51.534;11.866;2023-03-01T08:50:03;4.00;99.90
26182;DHT22;13927;51.534;11.866;2023-03-01T08:52:34;4.20;99.90
26182;DHT22;13927;51.534;11.866;2023-03-01T08:54:59;4.40;99.90
26182;DHT22;13927;51.534;11.866;2023-03-01T08:57:27;4.50;99.90
26182;DHT22;13927;51.534;11.866;2023-03-01T08:59:52;4.60;99.90
26182;DHT22;13927;51.534;11.866;2023-03-01T09:02:21;5.10;99.90
26182;DHT22;13927;51.534;11.866;2023-03-01T09:04:47;5.10;99.90
26182;DHT22;13927;51.534;11.866;2023-03-01T09:07:13;5.30;99.90
26182;DHT22;13927;51.534;11.866;2023-03-01T09:09:39;5.50;99.90
26182;DHT22;13927;51.534;11.866;2023-03-01T09:12:05;5.70;99.90
26182;DHT22;13927;51.534;11.866;2023-03-01T09:14:31;6.00;99.90
26182;DHT22;13927;51.534;11.866;2023-03-01T09:16:56;6.40;99.90
26182;DHT22;13927;51.534;11.866;2023-03-01T09:19:22;6.70;99.90
26182;DHT22;13927;51.534;11.866;2023-03-01T09:21:48;6.60;99.90
26182;DHT22;13927;51.534;11.866;2023-03-01T09:24:21;6.80;99.90
26182;DHT22;13927;51.534;11.866;2023-03-01T09:26:49;7.20;99.90
26182;DHT22;13927;51.534;11.866;2023-03-01T09:29:17;7.40;99.90
26182;DHT22;13927;51.534;11.866;2023-03-01T09:31:43;7.50;99.90
26182;DHT22;13927;51.534;11.866;2023-03-01T09:34:09;7.70;99.90
26182;DHT22;13927;51.534;11.866;2023-03-01T09:36:36;7.80;99.90
26182;DHT22;13927;51.534;11.866;2023-03-01T09:39:03;7.90;99.90
26182;DHT22;13927;51.534;11.866;2023-03-01T09:41:54;7.90;99.90
26182;DHT22;13927;51.534;11.866;2023-03-01T09:44:40;7.80;99.90
26182;DHT22;13927;51.534;11.866;2023-03-01T09:47:16;7.70;99.90
26182;DHT22;13927;51.534;11.866;2023-03-01T09:50:09;7.70;99.90
26182;DHT22;13927;51.534;11.866;2023-03-01T09:53:01;7.60;99.90
26182;DHT22;13927;51.534;11.866;2023-03-01T09:56:00;7.70;99.90
26182;DHT22;13927;51.534;11.866;2023-03-01T10:04:51;8.00;99.90
26182;DHT22;13927;51.534;11.866;2023-03-01T10:10:29;8.30;99.90
26182;DHT22;13927;51.534;11.866;2023-03-01T10:16:24;8.00;99.90
26182;DHT22;13927;51.534;11.866;2023-03-01T10:19:05;7.80;99.90
26182;DHT22;13927;51.534;11.866;2023-03-01T10:21:37;7.90;99.90
26182;DHT22;13927;51.534;11.866;2023-03-01T10:24:15;8.10;99.90
26182;DHT22;13927;51.534;11.866;2023-03-01T10:26:59;8.30;99.90
26182;DHT22;13927;51.534;11.866;2023-03-01T10:30:05;8.60;99.90
26182;DHT22;13927;51.534;11.866;2023-03-01T10:32:38;8.90;99.90
26182;DHT22;13927;51.534;11.866;2023-03-01T10:35:26;9.00;99.90
26182;DHT22;13927;51.534;11.866;2023-03-01T10:38:11;9.10;99.90
26182;DHT22;13927;51.534;11.866;2023-03-01T10:40:57;9.40;99.90
26182;DHT22;13927;51.534;11.866;2023-03-01T10:43:53;9.40;99.90
26182;DHT22;13927;51.534;11.866;2023-03-01T10:46:25;9.60;99.90
26182;DHT22;13927;51.534;11.866;2023-03-01T10:49:22;9.70;99.90
26182;DHT22;13927;51.534;11.866;2023-03-01T10:51:51;9.50;99.90
26182;DHT22;13927;51.534;11.866;2023-03-01T10:54:27;9.40;99.90
26182;DHT22;13927;51.534;11.866;2023-03-01T10:56:56;9.50;99.90
26182;DHT22;13927;51.534;11.866;2023-03-01T10:59:29;9.80;99.90
26182;DHT22;13927;51.534;11.866;2023-03-01T11:04:39;9.70;99.90
26182;DHT22;13927;51.534;11.866;2023-03-01T11:07:07;9.70;99.90
26182;DHT22;13927;51.534;11.866;2023-03-01T11:09:33;10.00;99.90
26182;DHT22;13927;51.534;11.866;2023-03-01T11:12:13;9.70;99.90
26182;DHT22;13927;51.534;11.866;2023-03-01T11:14:47;9.70;99.90
26182;DHT22;13927;51.534;11.866;2023-03-01T11:17:30;9.70;99.90
26182;DHT22;13927;51.534;11.866;2023-03-01T11:20:13;9.70;99.90
26182;DHT22;13927;51.534;11.866;2023-03-01T11:22:49;9.60;99.90
26182;DHT22;13927;51.534;11.866;2023-03-01T11:25:18;9.80;99.90
26182;DHT22;13927;51.534;11.866;2023-03-01T11:27:46;9.30;99.90
26182;DHT22;13927;51.534;11.866;2023-03-01T11:30:34;9.30;99.90
26182;DHT22;13927;51.534;11.866;2023-03-01T11:35:47;9.20;99.90
26182;DHT22;13927;51.534;11.866;2023-03-01T11:38:28;9.50;99.90
26182;DHT22;13927;51.534;11.866;2023-03-01T11:41:07;10.00;99.90
26182;DHT22;13927;51.534;11.866;2023-03-01T11:49:07;10.00;99.90
26182;DHT22;13927;51.534;11.866;2023-03-01T11:55:51;10.40;99.90
26182;DHT22;13927;51.534;11.866;2023-03-01T12:09:17;11.00;99.90
26182;DHT22;13927;51.534;11.866;2023-03-01T12:14:49;11.30;99.90
26182;DHT22;13927;51.534;11.866;2023-03-01T12:17:40;11.40;99.90
26182;DHT22;13927;51.534;11.866;2023-03-01T12:23:58;11.50;99.90
26182;DHT22;13927;51.534;11.866;2023-03-01T12:32:47;11.00;99.90
26182;DHT22;13927;51.534;11.866;2023-03-01T12:43:10;10.80;99.90
26182;DHT22;13927;51.534;11.866;2023-03-01T12:51:39;10.50;99.90
26182;DHT22;13927;51.534;11.866;2023-03-01T12:54:16;10.70;99.90
26182;DHT22;13927;51.534;11.866;2023-03-01T12:56:48;10.80;99.90
26182;DHT22;13927;51.534;11.866;2023-03-01T12:59:38;11.00;99.90
26182;DHT22;13927;51.534;11.866;2023-03-01T13:10:26;11.20;99.90
26182;DHT22;13927;51.534;11.866;2023-03-01T13:13:12;11.20;99.90
26182;DHT22;13927;51.534;11.866;2023-03-01T13:15:40;11.20;99.90
26182;DHT22;13927;51.534;11.866;2023-03-01T13:31:01;11.40;99.90
26182;DHT22;13927;51.534;11.866;2023-03-01T13:35:54;11.80;99.90
26182;DHT22;13927;51.534;11.866;2023-03-01T13:38:55;11.90;99.90
26182;DHT22;13927;51.534;11.866;2023-03-01T13:47:16;11.60;99.90
26182;DHT22;13927;51.534;11.866;2023-03-01T13:49:55;11.90;99.90
26182;DHT22;13927;51.534;11.866;2023-03-01T13:58:24;12.60;99.90
26182;DHT22;13927;51.534;11.866;2023-03-01T14:01:06;12.40;99.90
26182;DHT22;13927;51.534;11.866;2023-03-01T14:03:40;12.40;99.90
26182;DHT22;13927;51.534;11.866;2023-03-01T14:06:15;12.50;99.90
26182;DHT22;13927;51.534;11.866;2023-03-01T14:08:44;12.40;99.90
26182;DHT22;13927;51.534;11.866;2023-03-01T14:17:23;12.20;99.90
26182;DHT22;13927;51.534;11.866;2023-03-01T14:20:00;11.90;99.90
26182;DHT22;13927;51.534;11.866;2023-03-01T14:22:34;11.90;99.90
26182;DHT22;13927;51.534;11.866;2023-03-01T14:25:05;12.00;99.90
26182;DHT22;13927;51.534;11.866;2023-03-01T14:27:41;11.90;99.60
26182;DHT22;13927;51.534;11.866;2023-03-01T14:30:38;12.00;99.90
26182;DHT22;13927;51.534;11.866;2023-03-01T14:33:15;12.00;99.90
26182;DHT22;13927;51.534;11.866;2023-03-01T14:35:57;11.90;98.60
26182;DHT22;13927;51.534;11.866;2023-03-01T14:38:50;12.20;99.10
26182;DHT22;13927;51.534;11.866;2023-03-01T14:41:18;12.40;98.70
26182;DHT22;13927;51.534;11.866;2023-03-01T14:43:56;12.70;98.20
26182;DHT22;13927;51.534;11.866;2023-03-01T14:46:33;12.80;98.30
26182;DHT22;13927;51.534;11.866;2023-03-01T14:51:34;12.60;96.50
26182;DHT22;13927;51.534;11.866;2023-03-01T14:54:01;12.60;96.40
26182;DHT22;13927;51.534;11.866;2023-03-01T14:56:27;12.40;97.00
26182;DHT22;13927;51.534;11.866;2023-03-01T14:59:10;12.30;96.10
26182;DHT22;13927;51.534;11.866;2023-03-01T15:01:36;12.20;96.50
26182;DHT22;13927;51.534;11.866;2023-03-01T15:04:02;11.90;96.70
26182;DHT22;13927;51.534;11.866;2023-03-01T15:06:28;11.80;97.50
26182;DHT22;13927;51.534;11.866;2023-03-01T15:08:55;11.90;96.80
26182;DHT22;13927;51.534;11.866;2023-03-01T15:11:32;11.80;96.90
26182;DHT22;13927;51.534;11.866;2023-03-01T15:13:58;11.80;98.30
26182;DHT22;13927;51.534;11.866;2023-03-01T15:16:30;11.90;97.10
26182;DHT22;13927;51.534;11.866;2023-03-01T15:19:06;12.10;96.40
26182;DHT22;13927;51.534;11.866;2023-03-01T15:21:38;12.00;96.40
26182;DHT22;13927;51.534;11.866;2023-03-01T15:26:59;12.00;97.00
26182;DHT22;13927;51.534;11.866;2023-03-01T15:29:33;12.00;96.40
26182;DHT22;13927;51.534;11.866;2023-03-01T15:34:56;12.30;98.10
26182;DHT22;13927;51.534;11.866;2023-03-01T15:37:46;12.60;97.80
26182;DHT22;13927;51.534;11.866;2023-03-01T15:42:57;12.70;97.10
26182;DHT22;13927;51.534;11.866;2023-03-01T15:45:29;12.50;96.80
26182;DHT22;13927;51.534;11.866;2023-03-01T15:48:03;12.30;96.60
26182;DHT22;13927;51.534;11.866;2023-03-01T15:50:31;12.40;97.10
26182;DHT22;13927;51.534;11.866;2023-03-01T15:53:00;12.50;96.80
26182;DHT22;13927;51.534;11.866;2023-03-01T15:55:32;12.50;97.50
26182;DHT22;13927;51.534;11.866;2023-03-01T15:58:10;12.70;97.40
26182;DHT22;13927;51.534;11.866;2023-03-01T16:00:39;12.90;97.70
26182;DHT22;13927;51.534;11.866;2023-03-01T16:03:05;13.20;97.30
26182;DHT22;13927;51.534;11.866;2023-03-01T16:05:34;13.20;96.00
26182;DHT22;13927;51.534;11.866;2023-03-01T16:08:02;13.10;96.10
26182;DHT22;13927;51.534;11.866;2023-03-01T16:10:28;13.10;96.70
26182;DHT22;13927;51.534;11.866;2023-03-01T16:12:54;13.20;97.00
26182;DHT22;13927;51.534;11.866;2023-03-01T16:15:22;13.30;96.30
26182;DHT22;13927;51.534;11.866;2023-03-01T16:17:52;13.10;96.00
26182;DHT22;13927;51.534;11.866;2023-03-01T16:20:19;13.10;96.50
26182;DHT22;13927;51.534;11.866;2023-03-01T16:22:45;12.90;96.50
26182;DHT22;13927;51.534;11.866;2023-03-01T16:25:13;12.40;96.60
26182;DHT22;13927;51.534;11.866;2023-03-01T16:27:46;12.00;97.70
26182;DHT22;13927;51.534;11.866;2023-03-01T16:30:14;11.60;98.70
26182;DHT22;13927;51.534;11.866;2023-03-01T16:32:44;11.20;99.90
26182;DHT22;13927;51.534;11.866;2023-03-01T16:35:12;10.70;99.90
26182;DHT22;13927;51.534;11.866;2023-03-01T16:37:40;10.20;99.90
26182;DHT22;13927;51.534;11.866;2023-03-01T16:40:27;9.70;99.90
26182;DHT22;13927;51.534;11.866;2023-03-01T16:42:54;9.30;99.90
26182;DHT22;13927;51.534;11.866;2023-03-01T16:45:25;8.80;99.90
26182;DHT22;13927;51.534;11.866;2023-03-01T16:47:54;8.40;99.90
26182;DHT22;13927;51.534;11.866;2023-03-01T16:50:20;8.10;99.90
26182;DHT22;13927;51.534;11.866;2023-03-01T16:52:45;7.80;99.90
26182;DHT22;13927;51.534;11.866;2023-03-01T16:55:11;7.60;99.90
26182;DHT22;13927;51.534;11.866;2023-03-01T16:57:38;7.30;99.90
26182;DHT22;13927;51.534;11.866;2023-03-01T17:00:05;7.10;99.90
26182;DHT22;13927;51.534;11.866;2023-03-01T17:02:35;7.00;99.90
26182;DHT22;13927;51.534;11.866;2023-03-01T17:05:01;6.80;99.90
26182;DHT22;13927;51.534;11.866;2023-03-01T17:07:31;6.60;99.90
26182;DHT22;13927;51.534;11.866;2023-03-01T17:09:59;6.40;99.90
26182;DHT22;13927;51.534;11.866;2023-03-01T17:12:28;6.20;99.90
26182;DHT22;13927;51.534;11.866;2023-03-01T17:14:54;6.10;99.90
26182;DHT22;13927;51.534;11.866;2023-03-01T17:17:20;5.90;99.90
26182;DHT22;13927;51.534;11.866;2023-03-01T17:19:46;5.80;99.90
26182;DHT22;13927;51.534;11.866;2023-03-01T17:22:12;5.70;99.90
26182;DHT22;13927;51.534;11.866;2023-03-01T17:24:43;5.50;99.90
26182;DHT22;13927;51.534;11.866;2023-03-01T17:27:09;5.40;99.90
26182;DHT22;13927;51.534;11.866;2023-03-01T17:29:37;5.30;99.90
26182;DHT22;13927;51.534;11.866;2023-03-01T17:32:03;5.10;99.90
26182;DHT22;13927;51.534;11.866;2023-03-01T17:34:31;5.00;99.90
26182;DHT22;13927;51.534;11.866;2023-03-01T17:36:58;4.90;99.90
26182;DHT22;13927;51.534;11.866;2023-03-01T17:39:24;4.80;99.90
26182;DHT22;13927;51.534;11.866;2023-03-01T17:41:52;4.80;99.90
26182;DHT22;13927;51.534;11.866;2023-03-01T17:44:19;4.70;99.90
26182;DHT22;13927;51.534;11.866;2023-03-01T17:46:45;4.70;99.90
26182;DHT22;13927;51.534;11.866;2023-03-01T17:49:11;4.60;99.90
26182;DHT22;13927;51.534;11.866;2023-03-01T17:51:37;4.50;99.90
26182;DHT22;13927;51.534;11.866;2023-03-01T17:54:03;4.50;99.90
26182;DHT22;13927;51.534;11.866;2023-03-01T17:56:29;4.30;99.90
26182;DHT22;13927;51.534;11.866;2023-03-01T17:58:56;3.90;99.90